createdAt,value
2022-12-03T00:01:54.520Z,7.43
2022-12-03T00:04:21.392Z,7.47
2022-12-03T00:06:48.295Z,7.47
2022-12-03T00:09:15.276Z,7.39
2022-12-03T00:11:42.040Z,7.29
2022-12-03T00:14:08.971Z,7.18
2022-12-03T00:16:35.857Z,7.21
2022-12-03T00:19:02.850Z,7.24
2022-12-03T00:21:29.739Z,7.21
2022-12-03T00:23:56.529Z,7.22
2022-12-03T00:26:23.449Z,7.17
2022-12-03T00:28:50.421Z,7.07
2022-12-03T00:31:17.255Z,6.81
2022-12-03T00:33:44.163Z,6.53
2022-12-03T00:36:11.058Z,6.56
2022-12-03T00:38:37.893Z,6.73
2022-12-03T00:41:04.858Z,6.81
2022-12-03T00:43:31.704Z,6.94
2022-12-03T00:45:58.449Z,7.07
2022-12-03T00:48:25.586Z,7.17
2022-12-03T00:50:52.807Z,7.27
2022-12-03T00:53:19.716Z,6.84
2022-12-03T00:55:46.624Z,6.68
2022-12-03T00:58:13.444Z,6.44
2022-12-03T01:00:40.388Z,6.45
2022-12-03T01:03:07.543Z,6.46
2022-12-03T01:05:34.412Z,6.54
2022-12-03T01:08:01.252Z,6.55
2022-12-03T01:10:28.068Z,6.66
2022-12-03T01:12:55.015Z,6.59
2022-12-03T01:15:21.875Z,6.73
2022-12-03T01:17:48.744Z,6.54
2022-12-03T01:20:15.675Z,6.62
2022-12-03T01:22:42.616Z,6.61
2022-12-03T01:25:09.973Z,6.62
2022-12-03T01:27:36.915Z,6.72
2022-12-03T01:30:04.478Z,6.83
2022-12-03T01:32:31.408Z,6.98
2022-12-03T01:34:58.275Z,6.98
2022-12-03T01:37:27.227Z,7.00
2022-12-03T01:39:54.476Z,7.07
2022-12-03T01:42:27.773Z,7.15
2022-12-03T01:44:57.947Z,6.79
2022-12-03T01:47:30.071Z,6.81
2022-12-03T01:50:24.722Z,6.94
2022-12-03T01:52:53.691Z,6.94
2022-12-03T01:55:24.734Z,6.93
2022-12-03T01:57:55.352Z,6.96
2022-12-03T02:00:23.956Z,7.07
2022-12-03T02:02:54.352Z,7.13
2022-12-03T02:05:24.355Z,7.17
2022-12-03T02:07:51.335Z,6.80
2022-12-03T02:10:21.846Z,6.22
2022-12-03T02:12:56.886Z,6.49
2022-12-03T02:15:24.132Z,6.66
2022-12-03T02:17:51.058Z,6.73
2022-12-03T02:20:18.540Z,6.67
2022-12-03T02:22:57.468Z,6.76
2022-12-03T02:25:31.080Z,6.79
2022-12-03T02:27:59.220Z,6.78
2022-12-03T02:30:28.642Z,6.82
2022-12-03T02:32:56.429Z,6.95
2022-12-03T02:35:30.427Z,6.97
2022-12-03T02:38:19.701Z,7.09
2022-12-03T02:40:48.791Z,7.10
2022-12-03T02:43:17.791Z,7.08
2022-12-03T02:45:51.562Z,7.08
2022-12-03T02:48:23.872Z,7.05
2022-12-03T02:50:53.869Z,7.25
2022-12-03T02:53:25.535Z,7.20
2022-12-03T02:55:54.919Z,7.34
2022-12-03T02:58:23.706Z,7.32
2022-12-03T03:00:53.514Z,7.24
2022-12-03T03:03:22.326Z,7.40
2022-12-03T03:05:50.483Z,7.29
2022-12-03T03:08:18.218Z,7.31
2022-12-03T03:10:46.212Z,7.41
2022-12-03T03:13:14.833Z,7.50
2022-12-03T03:15:42.684Z,7.46
2022-12-03T03:18:10.758Z,7.45
2022-12-03T03:20:38.538Z,7.30
2022-12-03T03:23:11.364Z,7.38
2022-12-03T03:25:41.411Z,7.26
2022-12-03T03:28:08.595Z,7.27
2022-12-03T03:30:36.799Z,7.14
2022-12-03T03:33:03.713Z,7.05
2022-12-03T03:35:30.995Z,7.17
2022-12-03T03:37:58.539Z,7.23
2022-12-03T03:40:26.599Z,7.16
2022-12-03T03:42:53.682Z,6.49
2022-12-03T03:45:25.492Z,6.18
2022-12-03T03:47:57.142Z,5.75
2022-12-03T03:50:24.495Z,5.71
2022-12-03T03:52:51.821Z,5.82
2022-12-03T03:55:18.807Z,6.13
2022-12-03T03:57:45.785Z,6.18
2022-12-03T04:00:13.046Z,6.55
2022-12-03T04:02:41.062Z,6.61
2022-12-03T04:05:11.483Z,6.57
2022-12-03T04:07:38.439Z,6.12
2022-12-03T04:10:06.037Z,5.72
2022-12-03T04:12:32.943Z,5.75
2022-12-03T04:14:59.945Z,5.23
2022-12-03T04:17:26.892Z,5.33
2022-12-03T04:19:54.035Z,5.30
2022-12-03T04:22:20.959Z,4.45
2022-12-03T04:24:47.892Z,4.01
2022-12-03T04:27:14.725Z,4.24
2022-12-03T04:29:41.665Z,4.44
2022-12-03T04:32:08.540Z,4.63
2022-12-03T04:34:35.546Z,4.78
2022-12-03T04:37:02.531Z,4.51
2022-12-03T04:39:29.390Z,4.15
2022-12-03T04:41:56.218Z,3.99
2022-12-03T04:44:23.067Z,4.05
2022-12-03T04:46:49.998Z,4.34
2022-12-03T04:49:16.698Z,4.61
2022-12-03T04:51:43.473Z,4.64
2022-12-03T04:54:10.491Z,4.70
2022-12-03T04:56:37.415Z,4.83
2022-12-03T04:59:04.707Z,5.05
2022-12-03T05:01:31.671Z,5.20
2022-12-03T05:03:58.658Z,5.21
2022-12-03T05:06:25.675Z,5.34
2022-12-03T05:08:52.535Z,5.40
2022-12-03T05:11:19.429Z,5.60
2022-12-03T05:13:46.292Z,5.86
2022-12-03T05:16:13.345Z,5.94
2022-12-03T05:18:40.180Z,5.96
2022-12-03T05:21:07.117Z,5.70
2022-12-03T05:23:33.939Z,5.35
2022-12-03T05:26:00.727Z,5.37
2022-12-03T05:28:27.647Z,5.55
2022-12-03T05:30:54.579Z,5.76
2022-12-03T05:33:21.454Z,6.01
2022-12-03T05:35:48.503Z,6.24
2022-12-03T05:38:15.352Z,6.38
2022-12-03T05:40:42.247Z,6.52
2022-12-03T05:43:09.191Z,6.69
2022-12-03T05:45:38.482Z,6.90
2022-12-03T05:48:07.387Z,6.92
2022-12-03T05:50:36.453Z,6.92
2022-12-03T05:53:03.477Z,7.00
2022-12-03T05:55:30.815Z,6.92
2022-12-03T05:57:57.881Z,6.97
2022-12-03T06:00:28.169Z,6.87
2022-12-03T06:02:55.880Z,6.53
2022-12-03T06:05:23.852Z,6.53
2022-12-03T06:07:52.587Z,6.71
2022-12-03T06:10:22.873Z,6.99
2022-12-03T06:12:50.141Z,7.06
2022-12-03T06:15:17.435Z,6.85
2022-12-03T06:17:44.335Z,6.75
2022-12-03T06:20:15.091Z,6.86
2022-12-03T06:22:42.175Z,7.19
2022-12-03T06:25:09.549Z,7.54
2022-12-03T06:27:36.774Z,7.87
2022-12-03T06:30:05.071Z,8.31
2022-12-03T06:32:31.995Z,8.63
2022-12-03T06:34:58.847Z,8.85
2022-12-03T06:37:25.741Z,8.89
2022-12-03T06:39:52.754Z,8.91
2022-12-03T06:42:19.593Z,8.93
2022-12-03T06:44:47.776Z,8.80
2022-12-03T06:47:14.742Z,8.56
2022-12-03T06:49:41.666Z,8.27
2022-12-03T06:52:08.462Z,7.93
2022-12-03T06:54:35.518Z,7.63
2022-12-03T06:57:02.335Z,7.80
2022-12-03T06:59:29.231Z,7.85
2022-12-03T07:01:56.180Z,7.69
2022-12-03T07:04:22.983Z,7.32
2022-12-03T07:06:49.883Z,7.28
2022-12-03T07:09:16.698Z,6.92
2022-12-03T07:11:44.103Z,6.91
2022-12-03T07:14:11.534Z,7.03
2022-12-03T07:16:39.414Z,7.11
2022-12-03T07:19:07.104Z,7.18
2022-12-03T07:21:34.232Z,7.25
2022-12-03T07:24:01.145Z,7.33
2022-12-03T07:26:28.096Z,7.25
2022-12-03T07:28:54.860Z,7.18
2022-12-03T07:31:21.813Z,7.11
2022-12-03T07:33:48.759Z,6.85
2022-12-03T07:36:15.691Z,7.07
2022-12-03T07:38:42.678Z,7.20
2022-12-03T07:41:09.516Z,7.34
2022-12-03T07:43:36.383Z,7.41
2022-12-03T07:46:03.284Z,7.40
2022-12-03T07:48:30.072Z,7.49
2022-12-03T07:50:56.891Z,7.14
2022-12-03T07:53:23.943Z,6.72
2022-12-03T07:55:50.843Z,6.63
2022-12-03T07:58:17.831Z,6.57
2022-12-03T08:00:44.882Z,6.40
2022-12-03T08:03:12.011Z,6.33
2022-12-03T08:05:38.926Z,6.34
2022-12-03T08:08:06.145Z,6.49
2022-12-03T08:10:33.174Z,6.63
2022-12-03T08:13:00.359Z,6.68
2022-12-03T08:15:39.065Z,6.79
2022-12-03T08:18:17.798Z,6.98
2022-12-03T08:20:46.898Z,7.24
2022-12-03T08:23:25.475Z,7.35
2022-12-03T08:25:53.079Z,7.26
2022-12-03T08:28:25.056Z,7.07
2022-12-03T08:31:10.376Z,7.11
2022-12-03T08:33:39.123Z,7.39
2022-12-03T08:36:16.775Z,7.43
2022-12-03T08:38:51.440Z,7.45
2022-12-03T08:41:20.090Z,7.40
2022-12-03T08:43:46.972Z,7.30
2022-12-03T08:46:19.180Z,7.40
2022-12-03T08:48:49.703Z,7.70
2022-12-03T08:51:22.450Z,7.68
2022-12-03T08:54:02.106Z,7.87
2022-12-03T08:56:33.887Z,7.97
2022-12-03T08:59:24.612Z,8.09
2022-12-03T09:01:51.756Z,8.06
2022-12-03T09:04:27.709Z,7.91
2022-12-03T09:06:55.501Z,7.82
2022-12-03T09:09:23.143Z,7.86
2022-12-03T09:11:51.097Z,7.94
2022-12-03T09:14:19.166Z,7.90
2022-12-03T09:16:48.738Z,7.92
2022-12-03T09:19:15.921Z,8.03
2022-12-03T09:21:42.861Z,8.17
2022-12-03T09:24:09.719Z,8.09
2022-12-03T09:26:36.782Z,7.93
2022-12-03T09:29:08.934Z,7.98
2022-12-03T09:31:38.886Z,8.22
2022-12-03T09:34:06.864Z,8.24
2022-12-03T09:36:34.059Z,8.33
2022-12-03T09:39:00.932Z,8.58
2022-12-03T09:41:28.124Z,8.74
2022-12-03T09:44:04.887Z,8.88
2022-12-03T09:46:43.288Z,8.89
2022-12-03T09:49:16.000Z,8.95
2022-12-03T09:54:29.534Z,8.86
2022-12-03T09:56:59.772Z,8.77
2022-12-03T09:59:32.102Z,8.71
2022-12-03T10:01:59.957Z,8.78
2022-12-03T10:04:28.221Z,8.85
2022-12-03T10:06:57.569Z,8.93
2022-12-03T10:09:27.303Z,9.21
2022-12-03T10:11:59.842Z,9.44
2022-12-03T10:14:27.902Z,9.57
2022-12-03T10:16:55.447Z,9.57
2022-12-03T10:19:26.794Z,9.54
2022-12-03T10:21:53.685Z,9.43
2022-12-03T10:24:25.375Z,9.42
2022-12-03T10:26:58.799Z,9.42
2022-12-03T10:29:33.248Z,9.39
2022-12-03T10:32:18.914Z,9.68
2022-12-03T10:34:45.787Z,9.65
2022-12-03T10:37:21.589Z,9.58
2022-12-03T10:40:01.761Z,9.53
2022-12-03T10:42:32.445Z,9.49
2022-12-03T10:45:23.019Z,9.42
2022-12-03T10:48:06.047Z,9.44
2022-12-03T10:50:33.708Z,9.36
2022-12-03T10:53:00.659Z,9.27
2022-12-03T10:55:30.958Z,9.31
2022-12-03T10:57:57.921Z,9.31
2022-12-03T11:00:24.712Z,9.43
2022-12-03T11:02:57.023Z,9.55
2022-12-03T11:05:26.857Z,9.59
2022-12-03T11:07:54.311Z,9.63
2022-12-03T11:10:21.647Z,9.68
2022-12-03T11:13:26.907Z,9.93
2022-12-03T11:15:54.159Z,10.12
2022-12-03T11:18:39.074Z,10.22
2022-12-03T11:21:10.960Z,10.08
2022-12-03T11:23:46.699Z,9.93
2022-12-03T11:26:18.926Z,9.82
2022-12-03T11:28:46.731Z,9.90
2022-12-03T11:31:40.796Z,9.85
2022-12-03T11:34:34.137Z,9.77
2022-12-03T11:37:09.899Z,9.73
2022-12-03T11:39:52.638Z,9.78
2022-12-03T11:42:22.727Z,9.85
2022-12-03T11:45:09.557Z,9.90
2022-12-03T11:47:44.129Z,9.92
2022-12-03T11:50:27.360Z,9.90
2022-12-03T11:53:23.895Z,9.95
2022-12-03T11:55:54.117Z,9.98
2022-12-03T11:58:28.264Z,10.00
2022-12-03T12:00:57.666Z,10.08
2022-12-03T12:03:24.598Z,10.21
2022-12-03T12:06:16.743Z,10.16
2022-12-03T12:08:52.336Z,10.00
2022-12-03T12:11:39.924Z,10.24
2022-12-03T12:14:09.246Z,10.29
2022-12-03T12:16:45.236Z,10.30
2022-12-03T12:19:54.105Z,10.20
2022-12-03T12:22:24.130Z,10.19
2022-12-03T12:25:39.574Z,10.40
2022-12-03T12:28:07.084Z,10.33
2022-12-03T12:30:34.325Z,10.17
2022-12-03T12:33:11.197Z,10.09
2022-12-03T12:35:38.147Z,10.06
2022-12-03T12:38:07.966Z,10.14
2022-12-03T12:40:37.877Z,10.04
2022-12-03T12:43:23.733Z,10.14
2022-12-03T12:45:54.751Z,10.15
2022-12-03T12:48:27.922Z,10.05
2022-12-03T12:51:00.991Z,10.16
2022-12-03T12:53:35.976Z,10.31
2022-12-03T12:56:28.464Z,10.30
2022-12-03T12:58:59.434Z,10.18
2022-12-03T13:01:31.058Z,10.34
2022-12-03T13:03:59.247Z,10.33
2022-12-03T13:06:28.575Z,10.47
2022-12-03T13:08:56.134Z,10.65
2022-12-03T13:11:39.695Z,10.63
2022-12-03T13:14:13.665Z,10.63
2022-12-03T13:16:40.580Z,10.60
2022-12-03T13:19:21.444Z,10.52
2022-12-03T13:21:49.126Z,10.64
2022-12-03T13:24:38.920Z,10.60
2022-12-03T13:27:23.091Z,10.45
2022-12-03T13:30:19.374Z,10.52
2022-12-03T13:32:46.355Z,10.46
2022-12-03T13:35:27.003Z,10.48
2022-12-03T13:37:54.144Z,10.55
2022-12-03T13:40:32.450Z,10.50
2022-12-03T13:42:59.730Z,10.46
2022-12-03T13:45:38.736Z,10.50
2022-12-03T13:48:27.586Z,10.65
2022-12-03T13:50:54.765Z,10.72
2022-12-03T13:53:47.939Z,10.69
2022-12-03T13:56:30.435Z,10.63
2022-12-03T13:58:58.803Z,10.70
2022-12-03T14:01:26.187Z,10.74
2022-12-03T14:03:53.607Z,10.50
2022-12-03T14:06:20.473Z,10.07
2022-12-03T14:08:47.591Z,9.96
2022-12-03T14:11:14.580Z,9.79
2022-12-03T14:13:41.403Z,9.75
2022-12-03T14:16:08.449Z,9.67
2022-12-03T14:18:35.507Z,9.66
2022-12-03T14:21:02.326Z,9.71
2022-12-03T14:23:29.315Z,9.69
2022-12-03T14:25:56.152Z,9.79
2022-12-03T14:28:23.205Z,9.88
2022-12-03T14:30:50.137Z,9.87
2022-12-03T14:33:16.955Z,10.18
2022-12-03T14:35:43.906Z,10.30
2022-12-03T14:38:11.012Z,10.34
2022-12-03T14:40:37.917Z,10.30
2022-12-03T14:43:07.011Z,10.33
2022-12-03T14:45:33.893Z,10.35
2022-12-03T14:48:00.884Z,10.40
2022-12-03T14:50:27.851Z,10.42
2022-12-03T14:52:54.756Z,10.39
2022-12-03T14:55:22.031Z,10.39
2022-12-03T14:57:48.963Z,10.34
2022-12-03T15:00:16.542Z,10.40
2022-12-03T15:02:43.476Z,10.45
2022-12-03T15:05:10.651Z,10.43
2022-12-03T15:07:37.516Z,10.47
2022-12-03T15:10:04.832Z,10.48
2022-12-03T15:12:31.860Z,10.56
2022-12-03T15:14:58.917Z,10.56
2022-12-03T15:17:31.517Z,10.42
2022-12-03T15:19:59.104Z,10.15
2022-12-03T15:22:26.056Z,10.31
2022-12-03T15:24:53.073Z,10.27
2022-12-03T15:27:22.178Z,10.28
2022-12-03T15:29:49.181Z,10.23
2022-12-03T15:32:16.144Z,10.27
2022-12-03T15:34:43.108Z,10.28
2022-12-03T15:37:10.088Z,10.22
2022-12-03T15:39:37.177Z,10.16
2022-12-03T15:42:04.170Z,9.84
2022-12-03T15:44:31.113Z,9.70
2022-12-03T15:46:58.032Z,9.46
2022-12-03T15:49:24.871Z,9.47
2022-12-03T15:51:51.754Z,9.29
2022-12-03T15:54:18.570Z,9.21
2022-12-03T15:56:45.612Z,9.15
2022-12-03T15:59:12.457Z,9.06
2022-12-03T16:01:39.429Z,9.05
2022-12-03T16:04:06.420Z,9.06
2022-12-03T16:06:33.381Z,8.90
2022-12-03T16:09:00.264Z,8.79
2022-12-03T16:11:27.228Z,8.75
2022-12-03T16:13:54.155Z,8.73
2022-12-03T16:16:23.884Z,8.75
2022-12-03T16:18:50.774Z,8.82
2022-12-03T16:21:20.837Z,8.86
2022-12-03T16:23:51.864Z,8.72
2022-12-03T16:26:18.971Z,8.70
2022-12-03T16:28:45.842Z,8.70
2022-12-03T16:31:12.832Z,8.69
2022-12-03T16:33:39.744Z,8.69
2022-12-03T16:36:06.949Z,8.57
2022-12-03T16:38:33.926Z,8.56
2022-12-03T16:41:01.110Z,8.46
2022-12-03T16:43:28.441Z,8.42
2022-12-03T16:45:55.799Z,8.58
2022-12-03T16:48:23.471Z,8.54
2022-12-03T16:50:50.406Z,8.71
2022-12-03T16:53:17.370Z,8.82
2022-12-03T16:55:46.039Z,8.63
2022-12-03T16:58:12.993Z,8.47
2022-12-03T17:00:39.931Z,8.52
2022-12-03T17:03:14.986Z,8.66
2022-12-03T17:05:41.908Z,8.60
2022-12-03T17:08:10.678Z,8.62
2022-12-03T17:10:38.372Z,8.67
2022-12-03T17:13:10.171Z,8.75
2022-12-03T17:15:38.212Z,8.57
2022-12-03T17:18:05.635Z,8.68
2022-12-03T17:20:33.784Z,8.59
2022-12-03T17:23:00.875Z,8.59
2022-12-03T17:25:28.618Z,8.66
2022-12-03T17:27:55.564Z,8.68
2022-12-03T17:30:22.612Z,8.67
2022-12-03T17:32:49.586Z,8.53
2022-12-03T17:35:17.058Z,8.52
2022-12-03T17:37:43.803Z,8.59
2022-12-03T17:40:13.061Z,8.72
2022-12-03T17:42:40.280Z,8.63
2022-12-03T17:45:07.871Z,8.63
2022-12-03T17:47:34.909Z,8.69
2022-12-03T17:50:01.931Z,8.85
2022-12-03T17:52:31.871Z,8.59
2022-12-03T17:55:23.637Z,8.62
2022-12-03T17:57:45.683Z,8.57
2022-12-03T18:00:12.982Z,8.41
2022-12-03T18:02:39.927Z,8.55
2022-12-03T18:05:07.118Z,8.37
2022-12-03T18:07:34.317Z,8.42
2022-12-03T18:10:01.479Z,8.45
2022-12-03T18:12:28.652Z,8.40
2022-12-03T18:14:55.475Z,8.61
2022-12-03T18:17:22.269Z,8.58
2022-12-03T18:19:49.210Z,8.63
2022-12-03T18:22:17.029Z,8.41
2022-12-03T18:24:46.285Z,8.38
2022-12-03T18:27:14.699Z,8.41
2022-12-03T18:29:41.553Z,8.37
2022-12-03T18:32:27.191Z,8.37
2022-12-03T18:35:01.285Z,8.41
2022-12-03T18:37:30.121Z,8.34
2022-12-03T18:39:58.500Z,8.31
2022-12-03T18:42:26.093Z,8.56
2022-12-03T18:44:55.502Z,8.41
2022-12-03T18:47:27.013Z,8.47
2022-12-03T18:49:54.322Z,8.38
2022-12-03T18:52:23.075Z,8.29
2022-12-03T18:54:50.222Z,8.23
2022-12-03T18:57:17.079Z,8.28
2022-12-03T18:59:43.865Z,8.32
2022-12-03T19:02:45.819Z,8.45
2022-12-03T19:05:04.710Z,8.36
2022-12-03T19:07:31.580Z,8.38
2022-12-03T19:09:58.478Z,8.47
2022-12-03T19:12:25.406Z,8.46
2022-12-03T19:14:52.300Z,8.35
2022-12-03T19:17:19.362Z,8.21
2022-12-03T19:19:46.204Z,8.13
2022-12-03T19:22:13.022Z,8.04
2022-12-03T19:24:39.925Z,8.01
2022-12-03T19:27:16.127Z,8.05
2022-12-03T19:29:42.967Z,8.06
2022-12-03T19:32:09.788Z,8.04
2022-12-03T19:34:36.895Z,8.06
2022-12-03T19:37:03.975Z,8.13
2022-12-03T19:39:33.700Z,8.28
2022-12-03T19:42:00.634Z,8.21
2022-12-03T19:44:27.541Z,8.15
2022-12-03T19:46:54.509Z,8.26
2022-12-03T19:49:21.551Z,8.16
2022-12-03T19:51:48.715Z,8.23
2022-12-03T19:54:17.020Z,8.14
2022-12-03T19:56:44.211Z,8.13
2022-12-03T19:59:12.980Z,8.05
2022-12-03T20:01:41.026Z,8.09
2022-12-03T20:04:08.821Z,8.05
2022-12-03T20:06:38.141Z,7.97
2022-12-03T20:09:15.538Z,7.95
2022-12-03T20:11:42.914Z,7.87
2022-12-03T20:14:13.662Z,7.80
2022-12-03T20:16:40.652Z,7.87
2022-12-03T20:19:10.129Z,7.82
2022-12-03T20:21:38.551Z,7.72
2022-12-03T20:24:06.165Z,7.77
2022-12-03T20:26:32.960Z,7.84
2022-12-03T20:29:00.109Z,7.85
2022-12-03T20:31:29.888Z,7.76
2022-12-03T20:33:59.358Z,7.80
2022-12-03T20:36:28.435Z,7.77
2022-12-03T20:38:57.182Z,7.72
2022-12-03T20:41:24.481Z,7.72
2022-12-03T20:43:51.847Z,7.76
2022-12-03T20:46:20.373Z,7.81
2022-12-03T20:48:47.371Z,7.78
2022-12-03T20:51:17.744Z,7.79
2022-12-03T20:53:45.859Z,7.76
2022-12-03T20:56:34.930Z,7.71
2022-12-03T20:59:07.599Z,7.71
2022-12-03T21:01:35.188Z,7.82
2022-12-03T21:04:02.479Z,7.73
2022-12-03T21:06:29.248Z,7.77
2022-12-03T21:08:58.115Z,7.78
2022-12-03T21:11:27.566Z,7.70
2022-12-03T21:13:55.219Z,7.74
2022-12-03T21:16:45.476Z,7.83
2022-12-03T21:19:12.021Z,7.79
2022-12-03T21:21:38.977Z,7.91
2022-12-03T21:24:06.104Z,7.94
2022-12-03T21:26:33.396Z,8.07
2022-12-03T21:29:01.012Z,7.89
2022-12-03T21:31:28.057Z,7.79
2022-12-03T21:33:55.991Z,7.85
2022-12-03T21:36:23.734Z,7.84
2022-12-03T21:38:51.400Z,7.87
2022-12-03T21:41:18.538Z,7.87
2022-12-03T21:43:45.427Z,7.94
2022-12-03T21:47:09.454Z,8.05
2022-12-03T21:49:02.273Z,8.03
2022-12-03T21:51:29.116Z,8.10
2022-12-03T21:53:56.160Z,7.96
2022-12-03T21:56:23.296Z,7.96
2022-12-03T21:58:50.170Z,8.03
2022-12-03T22:01:22.737Z,8.03
2022-12-03T22:03:50.203Z,7.96
2022-12-03T22:06:19.071Z,8.04
2022-12-03T22:08:46.592Z,8.08
2022-12-03T22:11:16.411Z,8.13
2022-12-03T22:13:43.566Z,8.22
2022-12-03T22:16:13.447Z,8.22
2022-12-03T22:18:40.838Z,8.29
2022-12-03T22:21:13.202Z,8.14
2022-12-03T22:23:40.043Z,8.11
2022-12-03T22:26:09.116Z,8.00
2022-12-03T22:28:35.965Z,8.03
2022-12-03T22:31:07.500Z,7.98
2022-12-03T22:33:35.443Z,7.99
2022-12-03T22:36:05.425Z,8.01
2022-12-03T22:38:32.778Z,7.98
2022-12-03T22:41:00.234Z,7.93
2022-12-03T22:43:27.163Z,7.78
2022-12-03T22:45:55.177Z,7.80
2022-12-03T22:48:23.122Z,7.95
2022-12-03T22:50:51.730Z,7.93
2022-12-03T22:53:19.371Z,7.95
2022-12-03T22:55:55.620Z,7.91
2022-12-03T22:58:22.564Z,7.77
2022-12-03T23:00:49.806Z,7.73
2022-12-03T23:03:16.756Z,7.79
2022-12-03T23:05:43.720Z,7.74
2022-12-03T23:08:21.100Z,7.68
2022-12-03T23:10:50.824Z,7.54
2022-12-03T23:13:19.396Z,7.51
2022-12-03T23:15:52.971Z,7.49
2022-12-03T23:18:20.875Z,7.58
2022-12-03T23:20:50.787Z,7.54
2022-12-03T23:23:19.349Z,7.50
2022-12-03T23:26:04.023Z,7.58
2022-12-03T23:28:33.241Z,7.61
2022-12-03T23:31:00.545Z,7.61
2022-12-03T23:33:28.283Z,7.59
2022-12-03T23:35:55.204Z,7.48
2022-12-03T23:38:22.496Z,7.45
2022-12-03T23:40:49.980Z,7.46
2022-12-03T23:43:17.031Z,7.47
2022-12-03T23:45:43.932Z,7.47
2022-12-03T23:48:10.944Z,7.60
2022-12-03T23:50:41.060Z,7.62
2022-12-03T23:53:07.911Z,7.53
2022-12-03T23:55:34.847Z,7.37
2022-12-03T23:58:01.805Z,7.32
